Time;durP1;ratioP1;P1;durP2;ratioP2;P2;SDS_P1;SDS_P2;PMS_P1;PMS_P2;Temp;Humidity;BMP_temperature;BMP_pressure;BME280_temperature;BME280_humidity;BME280_pressure;Samples;Min_cycle;Max_cycle;Signal;HPM_P1;HPM_P2
2024/01/01 00:02:07;;;;;;;9.95;5.95;;;;;;;;;;5085134;28;40929;-72
2024/01/01 00:04:35;;;;;;;8.75;6.22;;;;;;;;;;5079358;28;41760;-71
2024/01/01 00:07:03;;;;;;;9.80;6.32;;;;;;;;;;5064518;28;41000;-71
2024/01/01 00:09:31;;;;;;;10.10;6.40;;;;;;;;;;5088677;28;40747;-71
2024/01/01 00:12:00;;;;;;;9.60;6.00;;;;;;;;;;5088271;28;41750;-73
2024/01/01 00:14:28;;;;;;;8.70;5.95;;;;;;;;;;5080134;28;40105;-71
2024/01/01 00:16:56;;;;;;;10.20;6.63;;;;;;;;;;5079927;28;41772;-71
2024/01/01 00:19:26;;;;;;;11.70;7.18;;;;;;;;;;5083217;28;43030;-72
2024/01/01 00:21:54;;;;;;;11.48;6.93;;;;;;;;;;5087396;28;40862;-71
2024/01/01 00:24:22;;;;;;;11.57;6.82;;;;;;;;;;5087210;28;41550;-71
2024/01/01 00:26:50;;;;;;;8.25;5.93;;;;;;;;;;5098046;28;42509;-72
2024/01/01 00:29:19;;;;;;;11.77;6.90;;;;;;;;;;5079556;28;41248;-72
2024/01/01 00:31:57;;;;;;;11.18;6.63;;;;;;;;;;5084962;28;41172;-72
2024/01/01 00:34:25;;;;;;;10.18;7.10;;;;;;;;;;5087766;28;40054;-72
2024/01/01 00:36:53;;;;;;;11.65;7.40;;;;;;;;;;5088979;28;41363;-73
2024/01/01 00:39:21;;;;;;;12.45;7.30;;;;;;;;;;5075594;28;41776;-72
2024/01/01 00:41:49;;;;;;;9.55;6.55;;;;;;;;;;5069813;28;39687;-72
2024/01/01 00:44:17;;;;;;;9.60;7.00;;;;;;;;;;5088196;28;42423;-71
2024/01/01 00:46:47;;;;;;;10.98;7.30;;;;;;;;;;5085038;28;41681;-70
2024/01/01 00:49:15;;;;;;;11.43;7.75;;;;;;;;;;5087154;28;39871;-71
2024/01/01 00:51:43;;;;;;;11.80;7.55;;;;;;;;;;5068443;28;40231;-71
2024/01/01 00:54:11;;;;;;;11.40;6.97;;;;;;;;;;5069690;28;40501;-71
2024/01/01 00:56:38;;;;;;;20.75;14.43;;;;;;;;;;5087785;27;39959;-71
2024/01/01 00:59:06;;;;;;;10.32;7.47;;;;;;;;;;5100585;27;42583;-71
2024/01/01 01:01:34;;;;;;;12.85;9.40;;;;;;;;;;5103121;27;41022;-71
2024/01/01 01:04:04;;;;;;;31.00;22.70;;;;;;;;;;5101994;27;42063;-71
2024/01/01 01:06:33;;;;;;;32.67;21.60;;;;;;;;;;5104538;27;42426;-71
2024/01/01 01:09:03;;;;;;;15.02;10.43;;;;;;;;;;5108022;27;41234;-71
2024/01/01 01:11:32;;;;;;;20.77;13.40;;;;;;;;;;5108750;27;43114;-71
2024/01/01 01:14:00;;;;;;;13.43;10.32;;;;;;;;;;5069791;28;41296;-71
2024/01/01 01:16:27;;;;;;;22.08;16.33;;;;;;;;;;5108474;27;41544;-71
2024/01/01 01:18:55;;;;;;;23.23;20.27;;;;;;;;;;5101014;27;42627;-71
2024/01/01 01:21:25;;;;;;;23.83;16.02;;;;;;;;;;5106519;27;39805;-71
2024/01/01 01:23:53;;;;;;;15.40;11.30;;;;;;;;;;5108025;27;40960;-71
2024/01/01 01:26:20;;;;;;;23.30;17.08;;;;;;;;;;5096827;27;42782;-71
2024/01/01 01:28:48;;;;;;;14.32;10.70;;;;;;;;;;5088546;28;38675;-71
2024/01/01 01:31:16;;;;;;;17.95;12.13;;;;;;;;;;5107729;27;41531;-71
2024/01/01 01:33:44;;;;;;;17.60;11.32;;;;;;;;;;5107304;27;42705;-70
2024/01/01 01:36:14;;;;;;;13.05;10.02;;;;;;;;;;5109225;27;40418;-71
2024/01/01 01:38:43;;;;;;;17.10;9.70;;;;;;;;;;5107586;27;42000;-71
2024/01/01 01:41:11;;;;;;;13.60;8.80;;;;;;;;;;5090013;28;39434;-71
2024/01/01 01:43:39;;;;;;;6.13;3.33;;;;;;;;;;5098449;27;41443;-70
2024/01/01 01:46:07;;;;;;;10.25;7.80;;;;;;;;;;5090317;28;41752;-71
2024/01/01 01:48:36;;;;;;;15.27;11.07;;;;;;;;;;5088802;28;39230;-71
2024/01/01 01:51:04;;;;;;;11.38;8.95;;;;;;;;;;5108617;28;42244;-71
2024/01/01 01:53:32;;;;;;;13.50;9.60;;;;;;;;;;5109478;27;41748;-71
2024/01/01 01:56:02;;;;;;;15.13;11.00;;;;;;;;;;5108374;27;39563;-71
2024/01/01 01:58:31;;;;;;;10.10;7.25;;;;;;;;;;5089516;28;39909;-70
2024/01/01 02:00:59;;;;;;;11.23;8.35;;;;;;;;;;5088937;28;38921;-71
2024/01/01 02:03:27;;;;;;;11.70;7.47;;;;;;;;;;5088416;28;41198;-71
2024/01/01 02:05:55;;;;;;;13.43;11.35;;;;;;;;;;5108381;27;41214;-71
2024/01/01 02:08:24;;;;;;;13.52;10.90;;;;;;;;;;5087578;27;39616;-71
2024/01/01 02:10:52;;;;;;;13.63;9.32;;;;;;;;;;5088714;28;40294;-71
2024/01/01 02:13:25;;;;;;;13.45;9.20;;;;;;;;;;5089610;28;40882;-71
2024/01/01 02:15:53;;;;;;;13.13;9.65;;;;;;;;;;5104810;28;40438;-71
2024/01/01 02:18:21;;;;;;;7.97;5.10;;;;;;;;;;5107175;27;42432;-71
2024/01/01 02:20:49;;;;;;;12.50;9.10;;;;;;;;;;5103989;27;44331;-71
2024/01/01 02:23:19;;;;;;;11.20;7.18;;;;;;;;;;5102719;28;42593;-71
2024/01/01 02:25:47;;;;;;;10.52;8.48;;;;;;;;;;5104649;27;43240;-71
2024/01/01 02:28:15;;;;;;;10.23;7.82;;;;;;;;;;5104974;27;40618;-71
2024/01/01 02:30:43;;;;;;;10.45;7.50;;;;;;;;;;5106055;27;41522;-71
2024/01/01 02:33:11;;;;;;;10.63;8.45;;;;;;;;;;5107519;28;43177;-71
2024/01/01 02:35:40;;;;;;;9.90;6.13;;;;;;;;;;5104302;27;41339;-71
2024/01/01 02:38:08;;;;;;;8.35;5.45;;;;;;;;;;5106072;27;41206;-71
2024/01/01 02:40:38;;;;;;;10.52;8.55;;;;;;;;;;5107281;27;42839;-71
2024/01/01 02:43:06;;;;;;;7.30;4.95;;;;;;;;;;5107779;28;41361;-71
2024/01/01 02:45:34;;;;;;;8.52;7.07;;;;;;;;;;5097132;27;42076;-71
2024/01/01 02:48:02;;;;;;;8.45;5.97;;;;;;;;;;5108108;27;39906;-71
2024/01/01 02:50:30;;;;;;;9.90;7.22;;;;;;;;;;5101194;27;42602;-71
2024/01/01 02:52:58;;;;;;;10.30;7.45;;;;;;;;;;5106973;27;44158;-71
2024/01/01 02:55:26;;;;;;;7.78;5.57;;;;;;;;;;5107462;27;40401;-71
2024/01/01 02:57:55;;;;;;;10.65;5.57;;;;;;;;;;5105004;28;41235;-71
2024/01/01 03:00:23;;;;;;;8.73;6.13;;;;;;;;;;5088087;28;41357;-71
2024/01/01 03:02:51;;;;;;;9.23;6.43;;;;;;;;;;5106031;27;39887;-71
2024/01/01 03:05:22;;;;;;;9.32;6.32;;;;;;;;;;5106892;27;41507;-71
2024/01/01 03:07:50;;;;;;;8.57;5.65;;;;;;;;;;5090785;27;39210;-71
2024/01/01 03:10:18;;;;;;;9.30;5.45;;;;;;;;;;5117130;27;42360;-71
2024/01/01 03:12:46;;;;;;;10.43;5.25;;;;;;;;;;5106230;27;42112;-71
2024/01/01 03:15:16;;;;;;;9.05;6.47;;;;;;;;;;5088569;28;39648;-71
2024/01/01 03:17:45;;;;;;;8.40;5.55;;;;;;;;;;5104670;27;41275;-71
2024/01/01 03:20:13;;;;;;;6.72;4.70;;;;;;;;;;5106017;27;42171;-71
2024/01/01 03:22:42;;;;;;;8.02;5.90;;;;;;;;;;5087023;27;39763;-71
2024/01/01 03:25:10;;;;;;;7.35;5.93;;;;;;;;;;5097791;27;40160;-71
2024/01/01 03:27:38;;;;;;;9.15;5.55;;;;;;;;;;5088406;27;40320;-71
2024/01/01 03:30:08;;;;;;;7.88;5.30;;;;;;;;;;5109555;27;41323;-71
2024/01/01 03:32:40;;;;;;;7.80;4.60;;;;;;;;;;5107907;27;42007;-71
2024/01/01 03:35:08;;;;;;;8.55;5.65;;;;;;;;;;5109610;27;39500;-71
2024/01/01 03:37:36;;;;;;;9.65;6.07;;;;;;;;;;5109645;27;41309;-71
2024/01/01 03:40:06;;;;;;;8.45;4.30;;;;;;;;;;5091257;27;40727;-71
2024/01/01 03:42:34;;;;;;;6.50;4.35;;;;;;;;;;5108998;27;39919;-71
2024/01/01 03:45:02;;;;;;;7.15;4.55;;;;;;;;;;5111180;27;41324;-70
2024/01/01 03:47:32;;;;;;;7.40;5.45;;;;;;;;;;5123482;27;42815;-71
2024/01/01 03:50:02;;;;;;;7.55;5.68;;;;;;;;;;5108011;27;41827;-71
2024/01/01 03:52:30;;;;;;;6.40;4.03;;;;;;;;;;5079300;28;40468;-71
2024/01/01 03:54:58;;;;;;;7.75;4.18;;;;;;;;;;5088532;28;38819;-71
2024/01/01 03:57:26;;;;;;;7.15;5.00;;;;;;;;;;5086532;28;41232;-71
2024/01/01 03:59:54;;;;;;;7.20;3.90;;;;;;;;;;5080894;28;41734;-71
2024/01/01 04:02:22;;;;;;;8.10;5.55;;;;;;;;;;5059303;28;38796;-71
2024/01/01 04:04:50;;;;;;;8.23;5.20;;;;;;;;;;5070944;28;40451;-71
2024/01/01 04:07:20;;;;;;;8.15;3.22;;;;;;;;;;5088372;28;41113;-71
2024/01/01 04:09:48;;;;;;;8.43;4.25;;;;;;;;;;5089555;28;41277;-70
2024/01/01 04:12:16;;;;;;;6.03;3.50;;;;;;;;;;5070148;28;40838;-71
2024/01/01 04:14:43;;;;;;;7.15;4.03;;;;;;;;;;5090131;28;40455;-71
2024/01/01 04:17:12;;;;;;;7.03;4.70;;;;;;;;;;5088251;28;41026;-71
2024/01/01 04:19:44;;;;;;;7.32;3.70;;;;;;;;;;5089154;28;40565;-71
2024/01/01 04:22:13;;;;;;;9.23;3.47;;;;;;;;;;5080740;28;40402;-71
2024/01/01 04:24:43;;;;;;;5.85;4.03;;;;;;;;;;5086813;28;41446;-71
2024/01/01 04:27:11;;;;;;;7.32;3.80;;;;;;;;;;5088991;28;41952;-70
2024/01/01 04:29:39;;;;;;;6.50;4.40;;;;;;;;;;5088246;28;41145;-71
2024/01/01 04:32:07;;;;;;;9.15;2.72;;;;;;;;;;5089459;28;42647;-71
2024/01/01 04:34:35;;;;;;;5.70;3.00;;;;;;;;;;5089206;28;41274;-71
2024/01/01 04:37:03;;;;;;;7.13;3.30;;;;;;;;;;5087083;28;41366;-71
2024/01/01 04:39:31;;;;;;;7.47;3.65;;;;;;;;;;5081988;28;42335;-71
2024/01/01 04:42:01;;;;;;;7.50;3.67;;;;;;;;;;5091753;28;40202;-70
2024/01/01 04:44:29;;;;;;;5.53;2.90;;;;;;;;;;5098689;28;41571;-71
2024/01/01 04:46:57;;;;;;;8.07;3.85;;;;;;;;;;5088306;28;42009;-71
2024/01/01 04:49:25;;;;;;;6.25;3.60;;;;;;;;;;5089165;28;40587;-71
2024/01/01 04:51:53;;;;;;;7.65;3.35;;;;;;;;;;5072809;28;41482;-71
2024/01/01 04:54:21;;;;;;;5.85;3.10;;;;;;;;;;5070110;28;42154;-71
2024/01/01 04:56:49;;;;;;;7.93;3.03;;;;;;;;;;5119808;27;41845;-71
2024/01/01 04:59:18;;;;;;;7.88;2.42;;;;;;;;;;5099345;27;42038;-71
2024/01/01 05:01:46;;;;;;;5.80;3.20;;;;;;;;;;5109668;27;40109;-71
2024/01/01 05:04:15;;;;;;;8.75;2.70;;;;;;;;;;5109199;27;41334;-71
2024/01/01 05:06:43;;;;;;;7.70;3.35;;;;;;;;;;5108879;27;41557;-70
2024/01/01 05:09:10;;;;;;;5.07;3.13;;;;;;;;;;5109023;27;39916;-71
2024/01/01 05:11:39;;;;;;;7.60;2.25;;;;;;;;;;5102291;27;42701;-71
2024/01/01 05:14:08;;;;;;;5.43;2.88;;;;;;;;;;5102185;27;41723;-71
2024/01/01 05:16:39;;;;;;;5.63;2.80;;;;;;;;;;5105586;27;41365;-71
2024/01/01 05:19:07;;;;;;;7.55;3.47;;;;;;;;;;5105204;27;41657;-71
2024/01/01 05:21:35;;;;;;;6.80;2.53;;;;;;;;;;5109353;28;40888;-71
2024/01/01 05:24:03;;;;;;;6.18;3.00;;;;;;;;;;5108841;27;41159;-73
2024/01/01 05:26:31;;;;;;;7.13;3.38;;;;;;;;;;5102719;27;41975;-73
2024/01/01 05:28:59;;;;;;;7.93;3.13;;;;;;;;;;5078519;28;38579;-73
2024/01/01 05:31:27;;;;;;;5.00;2.53;;;;;;;;;;5108861;27;41425;-73
2024/01/01 05:33:56;;;;;;;4.80;1.92;;;;;;;;;;5107913;27;42343;-73
2024/01/01 05:36:25;;;;;;;4.60;2.78;;;;;;;;;;5108875;27;40655;-73
2024/01/01 05:38:52;;;;;;;4.45;2.40;;;;;;;;;;5108118;27;43174;-73
2024/01/01 05:41:20;;;;;;;6.47;2.67;;;;;;;;;;5105484;27;40544;-73
2024/01/01 05:43:49;;;;;;;4.82;2.67;;;;;;;;;;5108504;27;41642;-73
2024/01/01 05:46:17;;;;;;;4.53;2.42;;;;;;;;;;5107597;27;43210;-73
2024/01/01 05:48:45;;;;;;;9.07;2.72;;;;;;;;;;5107829;27;40229;-73
2024/01/01 05:51:16;;;;;;;5.57;2.75;;;;;;;;;;5108106;27;42230;-73
2024/01/01 05:53:44;;;;;;;5.32;2.80;;;;;;;;;;5091488;27;40768;-73
2024/01/01 05:56:12;;;;;;;6.35;1.90;;;;;;;;;;5091216;27;39955;-72
2024/01/01 05:58:40;;;;;;;5.40;2.20;;;;;;;;;;5083281;28;40986;-73
2024/01/01 06:01:09;;;;;;;4.65;2.05;;;;;;;;;;5086940;28;40068;-73
2024/01/01 06:03:37;;;;;;;7.95;2.38;;;;;;;;;;5087980;28;41035;-73
2024/01/01 06:06:08;;;;;;;4.93;2.33;;;;;;;;;;5085764;28;42079;-73
2024/01/01 06:08:37;;;;;;;5.70;2.60;;;;;;;;;;5070505;28;41925;-73
2024/01/01 06:11:05;;;;;;;7.75;2.90;;;;;;;;;;5087530;28;41542;-73
2024/01/01 06:13:33;;;;;;;6.68;2.30;;;;;;;;;;5069324;28;41501;-73
2024/01/01 06:16:03;;;;;;;6.97;2.78;;;;;;;;;;5087150;28;40050;-73
2024/01/01 06:18:30;;;;;;;4.75;2.47;;;;;;;;;;5086549;28;41298;-73
2024/01/01 06:20:59;;;;;;;5.68;2.75;;;;;;;;;;5088545;28;42732;-73
2024/01/01 06:23:27;;;;;;;7.72;2.90;;;;;;;;;;5087071;28;41618;-73
2024/01/01 06:25:56;;;;;;;5.72;2.40;;;;;;;;;;5068148;28;40685;-73
2024/01/01 06:28:26;;;;;;;5.43;2.20;;;;;;;;;;5087060;28;40312;-74
2024/01/01 06:30:54;;;;;;;8.48;2.38;;;;;;;;;;5087164;28;39929;-73
2024/01/01 06:33:22;;;;;;;5.03;2.00;;;;;;;;;;5087316;28;42120;-73
2024/01/01 06:35:50;;;;;;;7.95;2.13;;;;;;;;;;5086967;28;40219;-73
2024/01/01 06:38:18;;;;;;;5.78;2.25;;;;;;;;;;5086152;28;41860;-73
2024/01/01 06:40:46;;;;;;;6.10;1.90;;;;;;;;;;5086895;28;42087;-73
2024/01/01 06:43:15;;;;;;;5.95;1.92;;;;;;;;;;5087533;28;40394;-73
2024/01/01 06:45:43;;;;;;;5.32;2.25;;;;;;;;;;5077997;28;43184;-73
2024/01/01 06:48:11;;;;;;;4.22;1.60;;;;;;;;;;5087605;28;39917;-73
2024/01/01 06:50:40;;;;;;;5.55;2.20;;;;;;;;;;5081061;28;41386;-72
2024/01/01 06:53:08;;;;;;;4.35;1.92;;;;;;;;;;5086831;28;41658;-73
2024/01/01 06:55:36;;;;;;;5.15;2.30;;;;;;;;;;5089371;27;40502;-73
2024/01/01 06:58:04;;;;;;;4.38;1.77;;;;;;;;;;5098494;27;41390;-73
2024/01/01 07:00:34;;;;;;;5.97;2.60;;;;;;;;;;5097549;27;41885;-73
2024/01/01 07:03:02;;;;;;;5.45;2.08;;;;;;;;;;5107221;27;40362;-73
2024/01/01 07:05:30;;;;;;;5.07;2.17;;;;;;;;;;5098782;27;41336;-73
2024/01/01 07:07:58;;;;;;;4.38;1.90;;;;;;;;;;5105165;27;41167;-73
2024/01/01 07:10:26;;;;;;;4.63;2.08;;;;;;;;;;5105605;27;41543;-73
2024/01/01 07:12:55;;;;;;;5.97;2.15;;;;;;;;;;5106882;27;41969;-73
2024/01/01 07:15:23;;;;;;;3.40;2.10;;;;;;;;;;5107191;27;40191;-73
2024/01/01 07:17:52;;;;;;;6.22;1.98;;;;;;;;;;5105833;27;42577;-73
2024/01/01 07:20:22;;;;;;;4.10;1.80;;;;;;;;;;5108730;27;40552;-73
2024/01/01 07:22:50;;;;;;;3.42;1.67;;;;;;;;;;5105488;27;40979;-73
2024/01/01 07:25:18;;;;;;;7.28;1.80;;;;;;;;;;5106004;27;41198;-73
2024/01/01 07:27:46;;;;;;;4.07;1.95;;;;;;;;;;5106410;27;34037;-73
2024/01/01 07:30:14;;;;;;;4.10;2.00;;;;;;;;;;5106439;27;41636;-73
2024/01/01 07:32:42;;;;;;;4.57;2.20;;;;;;;;;;5106354;27;42970;-73
2024/01/01 07:35:12;;;;;;;8.45;2.25;;;;;;;;;;5104453;27;41359;-73
2024/01/01 07:37:40;;;;;;;7.53;2.22;;;;;;;;;;5099932;27;43103;-73
2024/01/01 07:40:08;;;;;;;5.05;1.98;;;;;;;;;;5098739;27;42129;-73
2024/01/01 07:42:36;;;;;;;4.85;2.00;;;;;;;;;;5107169;27;40995;-73
2024/01/01 07:45:04;;;;;;;6.05;2.15;;;;;;;;;;5086121;28;41006;-73
2024/01/01 07:47:32;;;;;;;4.05;1.50;;;;;;;;;;5106714;27;42730;-73
2024/01/01 07:50:00;;;;;;;4.68;1.83;;;;;;;;;;5110652;27;42358;-73
2024/01/01 07:52:30;;;;;;;3.58;1.52;;;;;;;;;;5087254;28;41822;-73
2024/01/01 07:54:58;;;;;;;5.43;1.98;;;;;;;;;;5105157;27;40098;-73
2024/01/01 07:57:26;;;;;;;5.35;2.10;;;;;;;;;;5103173;27;41159;-73
2024/01/01 07:59:56;;;;;;;6.85;2.38;;;;;;;;;;5107405;27;43160;-73
2024/01/01 08:02:24;;;;;;;4.60;1.73;;;;;;;;;;5107129;27;39817;-73
2024/01/01 08:04:54;;;;;;;4.07;1.35;;;;;;;;;;5105960;27;41109;-73
2024/01/01 08:07:22;;;;;;;4.43;1.75;;;;;;;;;;5106075;27;41650;-73
2024/01/01 08:09:52;;;;;;;6.88;1.85;;;;;;;;;;5104663;27;40266;-73
2024/01/01 08:12:20;;;;;;;8.02;2.13;;;;;;;;;;5110055;27;42617;-73
2024/01/01 08:14:48;;;;;;;4.90;1.77;;;;;;;;;;5105562;27;39731;-73
2024/01/01 08:17:16;;;;;;;3.63;1.52;;;;;;;;;;5104430;27;42328;-73
2024/01/01 08:19:44;;;;;;;6.30;2.25;;;;;;;;;;5109405;27;41691;-73
2024/01/01 08:22:12;;;;;;;4.50;1.75;;;;;;;;;;5109759;27;40419;-73
2024/01/01 08:24:40;;;;;;;3.70;1.90;;;;;;;;;;5095222;27;41186;-73
2024/01/01 08:27:09;;;;;;;3.83;1.67;;;;;;;;;;5105644;27;41837;-73
2024/01/01 08:29:37;;;;;;;4.57;1.55;;;;;;;;;;5107105;27;39799;-73
2024/01/01 08:32:06;;;;;;;4.82;2.15;;;;;;;;;;5117701;27;42149;-73
2024/01/01 08:34:34;;;;;;;5.68;1.50;;;;;;;;;;5107504;27;40360;-73
2024/01/01 08:37:02;;;;;;;4.88;1.83;;;;;;;;;;5109105;27;41630;-73
2024/01/01 08:39:30;;;;;;;3.60;1.52;;;;;;;;;;5110548;27;42108;-73
2024/01/01 08:41:58;;;;;;;6.85;2.08;;;;;;;;;;5124051;27;39828;-73
2024/01/01 08:44:27;;;;;;;4.40;1.40;;;;;;;;;;5109408;27;43126;-73
2024/01/01 08:46:55;;;;;;;5.88;2.10;;;;;;;;;;5099762;27;42087;-73
2024/01/01 08:49:23;;;;;;;3.47;1.77;;;;;;;;;;5105951;27;40139;-75
2024/01/01 08:51:51;;;;;;;4.25;1.80;;;;;;;;;;5104034;27;42182;-75
2024/01/01 08:54:19;;;;;;;5.07;1.67;;;;;;;;;;5097821;27;41967;-75
2024/01/01 08:56:47;;;;;;;6.97;1.70;;;;;;;;;;5100481;27;41276;-75
2024/01/01 08:59:16;;;;;;;4.70;1.98;;;;;;;;;;5109031;27;41594;-75
2024/01/01 09:01:45;;;;;;;5.75;1.83;;;;;;;;;;5107050;27;41248;-75
2024/01/01 09:04:13;;;;;;;4.65;1.70;;;;;;;;;;5108923;28;42646;-75
2024/01/01 09:06:42;;;;;;;6.22;2.22;;;;;;;;;;5109482;28;42641;-75
2024/01/01 09:09:11;;;;;;;5.68;1.88;;;;;;;;;;5110327;27;41031;-77
2024/01/01 09:11:39;;;;;;;5.75;1.90;;;;;;;;;;5110035;27;42234;-77
2024/01/01 09:14:07;;;;;;;8.27;1.95;;;;;;;;;;5120263;27;42846;-77
2024/01/01 09:16:37;;;;;;;7.30;1.55;;;;;;;;;;5113315;27;41852;-75
2024/01/01 09:19:06;;;;;;;5.95;1.77;;;;;;;;;;5107713;27;42786;-74
2024/01/01 09:21:34;;;;;;;5.50;1.85;;;;;;;;;;5099827;28;38375;-75
2024/01/01 09:24:02;;;;;;;6.22;2.10;;;;;;;;;;5107095;28;42852;-74
2024/01/01 09:26:30;;;;;;;14.38;2.10;;;;;;;;;;5111405;27;42110;-75
2024/01/01 09:28:58;;;;;;;6.80;1.95;;;;;;;;;;5109542;27;40553;-75
2024/01/01 09:31:27;;;;;;;6.57;1.77;;;;;;;;;;5119522;27;42621;-75
2024/01/01 09:33:55;;;;;;;6.32;1.70;;;;;;;;;;5112048;27;41945;-74
2024/01/01 09:36:24;;;;;;;5.63;1.60;;;;;;;;;;5113166;27;40332;-73
2024/01/01 09:38:52;;;;;;;6.30;1.83;;;;;;;;;;5103957;27;42095;-74
2024/01/01 09:41:20;;;;;;;3.60;1.58;;;;;;;;;;5105031;27;39826;-75
2024/01/01 09:43:48;;;;;;;6.05;1.98;;;;;;;;;;5108547;27;41487;-74
2024/01/01 09:46:17;;;;;;;5.22;1.75;;;;;;;;;;5109058;27;41867;-73
2024/01/01 09:48:45;;;;;;;4.60;1.55;;;;;;;;;;5115260;27;40491;-73
2024/01/01 09:51:14;;;;;;;3.50;1.30;;;;;;;;;;5108275;27;41523;-71
2024/01/01 09:53:46;;;;;;;7.28;1.85;;;;;;;;;;5110823;27;41924;-71
2024/01/01 09:56:14;;;;;;;6.07;1.83;;;;;;;;;;5094930;27;41007;-72
2024/01/01 09:58:42;;;;;;;5.22;1.80;;;;;;;;;;5081457;28;41504;-74
2024/01/01 10:01:11;;;;;;;5.35;1.92;;;;;;;;;;5090538;28;40195;-73
2024/01/01 10:03:39;;;;;;;4.85;1.38;;;;;;;;;;5072285;28;42649;-73
2024/01/01 10:06:07;;;;;;;7.28;1.45;;;;;;;;;;5070774;28;42272;-73
2024/01/01 10:08:35;;;;;;;4.43;1.88;;;;;;;;;;5071630;28;41423;-72
2024/01/01 10:11:15;;;;;;;3.97;1.77;;;;;;;;;;5079237;28;41192;-73
2024/01/01 10:13:43;;;;;;;10.85;2.08;;;;;;;;;;5084437;28;41916;-73
2024/01/01 10:16:11;;;;;;;5.50;1.90;;;;;;;;;;5086691;28;42485;-75
2024/01/01 10:18:39;;;;;;;5.63;1.63;;;;;;;;;;5083755;28;42356;-74
2024/01/01 10:21:09;;;;;;;3.92;1.70;;;;;;;;;;5089141;28;42976;-72
2024/01/01 10:23:41;;;;;;;6.53;2.03;;;;;;;;;;5084011;28;41521;-72
2024/01/01 10:26:10;;;;;;;5.35;1.60;;;;;;;;;;5087358;28;42821;-73
2024/01/01 10:28:40;;;;;;;5.15;1.80;;;;;;;;;;5086965;28;40251;-73
2024/01/01 10:31:12;;;;;;;7.05;1.90;;;;;;;;;;5084479;28;42146;-74
2024/01/01 10:33:40;;;;;;;4.40;1.85;;;;;;;;;;5080621;28;43069;-73
2024/01/01 10:36:08;;;;;;;6.53;1.50;;;;;;;;;;5074579;28;40887;-75
2024/01/01 10:38:37;;;;;;;4.13;1.90;;;;;;;;;;5082067;28;41352;-76
2024/01/01 10:41:06;;;;;;;5.20;1.45;;;;;;;;;;5080482;28;41904;-76
2024/01/01 10:43:34;;;;;;;3.25;1.42;;;;;;;;;;5068637;28;39128;-76
2024/01/01 10:46:04;;;;;;;4.90;1.77;;;;;;;;;;5082383;28;43248;-73
2024/01/01 10:48:32;;;;;;;3.85;1.60;;;;;;;;;;5086744;28;40045;-73
2024/01/01 10:51:04;;;;;;;5.68;1.52;;;;;;;;;;5086477;28;42059;-74
2024/01/01 10:53:36;;;;;;;5.10;1.98;;;;;;;;;;5086153;28;42208;-74
2024/01/01 10:56:07;;;;;;;4.70;1.60;;;;;;;;;;5094052;27;41017;-75
2024/01/01 10:58:39;;;;;;;3.75;1.40;;;;;;;;;;5106659;27;20260;-74
2024/01/01 11:01:09;;;;;;;4.60;1.48;;;;;;;;;;5104560;27;42469;-82
2024/01/01 11:03:37;;;;;;;4.18;1.30;;;;;;;;;;5074034;28;39006;-74
2024/01/01 11:06:21;;;;;;;5.32;1.75;;;;;;;;;;5101039;27;40708;-73
2024/01/01 11:08:49;;;;;;;2.63;1.33;;;;;;;;;;5101933;27;40398;-73
2024/01/01 11:11:24;;;;;;;3.78;1.40;;;;;;;;;;5106989;27;43161;-72
2024/01/01 11:13:53;;;;;;;3.92;1.17;;;;;;;;;;5107226;27;43642;-73
2024/01/01 11:16:22;;;;;;;3.53;1.17;;;;;;;;;;5106101;27;41082;-73
2024/01/01 11:18:51;;;;;;;4.18;1.65;;;;;;;;;;5106042;27;41609;-73
2024/01/01 11:21:29;;;;;;;7.13;1.48;;;;;;;;;;5106651;27;42022;-74
2024/01/01 11:23:59;;;;;;;4.88;1.35;;;;;;;;;;5107194;27;41289;-73
2024/01/01 11:26:47;;;;;;;4.75;1.52;;;;;;;;;;5099628;27;41269;-72
2024/01/01 11:29:26;;;;;;;4.85;1.55;;;;;;;;;;5107732;27;41638;-73
2024/01/01 11:32:02;;;;;;;6.78;1.30;;;;;;;;;;5089900;27;41774;-72
2024/01/01 11:34:30;;;;;;;3.03;1.30;;;;;;;;;;5100578;27;41734;-73
2024/01/01 11:37:19;;;;;;;4.10;0.90;;;;;;;;;;5101777;27;39773;-71
2024/01/01 11:39:57;;;;;;;11.32;1.60;;;;;;;;;;5103029;27;42492;-71
2024/01/01 11:42:25;;;;;;;4.32;1.25;;;;;;;;;;5100017;27;42223;-72
2024/01/01 11:45:10;;;;;;;2.10;0.90;;;;;;;;;;5106823;27;40984;-72
2024/01/01 11:47:39;;;;;;;5.13;1.65;;;;;;;;;;5104932;27;42620;-73
2024/01/01 11:50:08;;;;;;;3.40;1.08;;;;;;;;;;5117511;27;41413;-71
2024/01/01 11:52:37;;;;;;;4.40;1.27;;;;;;;;;;5116248;27;40607;-72
2024/01/01 11:55:05;;;;;;;5.10;1.40;;;;;;;;;;5115494;27;42021;-73
2024/01/01 11:57:34;;;;;;;3.80;1.55;;;;;;;;;;5093944;28;41464;-72
2024/01/01 12:00:02;;;;;;;6.82;1.13;;;;;;;;;;5089969;28;41064;-73
2024/01/01 12:02:36;;;;;;;4.47;1.23;;;;;;;;;;5080871;28;44062;-73
2024/01/01 12:05:05;;;;;;;2.50;1.30;;;;;;;;;;5087774;28;40310;-73
2024/01/01 12:07:34;;;;;;;4.32;1.58;;;;;;;;;;5087233;28;41220;-76
2024/01/01 12:10:04;;;;;;;4.65;1.95;;;;;;;;;;5090966;28;42023;-74
2024/01/01 12:12:32;;;;;;;3.10;1.30;;;;;;;;;;5088763;28;40296;-74
2024/01/01 12:15:12;;;;;;;3.15;1.30;;;;;;;;;;5089291;28;41880;-75
2024/01/01 12:17:41;;;;;;;1.95;0.90;;;;;;;;;;5091304;28;40811;-75
2024/01/01 12:20:11;;;;;;;13.40;1.85;;;;;;;;;;5089845;28;42119;-74
2024/01/01 12:22:39;;;;;;;8.40;1.50;;;;;;;;;;5088869;28;42150;-77
2024/01/01 12:25:11;;;;;;;4.60;1.20;;;;;;;;;;5085483;28;40408;-77
2024/01/01 12:27:39;;;;;;;2.25;1.20;;;;;;;;;;5088922;28;42612;-78
2024/01/01 12:30:08;;;;;;;3.67;1.23;;;;;;;;;;5089915;28;43113;-78
2024/01/01 12:32:36;;;;;;;4.17;1.37;;;;;;;;;;5089071;28;40117;-80
2024/01/01 12:35:04;;;;;;;2.53;1.23;;;;;;;;;;5089421;28;41936;-79
2024/01/01 12:37:34;;;;;;;5.05;1.63;;;;;;;;;;5089865;28;40906;-80
2024/01/01 12:40:02;;;;;;;4.07;1.23;;;;;;;;;;5090290;28;41544;-79
2024/01/01 12:42:30;;;;;;;3.67;1.33;;;;;;;;;;5083907;28;41968;-78
2024/01/01 12:44:58;;;;;;;5.65;1.50;;;;;;;;;;5089256;28;40027;-77
2024/01/01 12:47:26;;;;;;;6.45;1.20;;;;;;;;;;5089431;28;42067;-78
2024/01/01 12:49:54;;;;;;;4.82;1.27;;;;;;;;;;5100048;28;41888;-78
2024/01/01 12:52:22;;;;;;;5.95;1.67;;;;;;;;;;5070490;28;39092;-78
2024/01/01 12:54:51;;;;;;;4.30;1.45;;;;;;;;;;5099946;27;41406;-78
2024/01/01 12:57:19;;;;;;;4.85;1.77;;;;;;;;;;5108731;27;41759;-78
2024/01/01 12:59:47;;;;;;;6.33;1.80;;;;;;;;;;5117540;27;41479;-77
2024/01/01 13:02:15;;;;;;;5.15;2.00;;;;;;;;;;5106209;27;43123;-78
2024/01/01 13:04:44;;;;;;;4.65;1.30;;;;;;;;;;5101667;27;41339;-78
2024/01/01 13:07:12;;;;;;;4.90;1.35;;;;;;;;;;5102273;27;42251;-78
2024/01/01 13:09:40;;;;;;;3.47;1.20;;;;;;;;;;5106181;27;42068;-78
2024/01/01 13:12:10;;;;;;;3.95;1.00;;;;;;;;;;5105322;27;41972;-78
2024/01/01 13:14:41;;;;;;;4.43;1.20;;;;;;;;;;5100761;27;41747;-78
2024/01/01 13:17:09;;;;;;;4.43;1.50;;;;;;;;;;5105097;27;40499;-78
2024/01/01 13:19:38;;;;;;;3.70;1.42;;;;;;;;;;5105574;27;40441;-79
2024/01/01 13:22:07;;;;;;;9.77;1.90;;;;;;;;;;5104176;27;42018;-78
2024/01/01 13:24:37;;;;;;;5.63;1.40;;;;;;;;;;5106474;27;40068;-78
2024/01/01 13:27:06;;;;;;;3.60;1.38;;;;;;;;;;5106031;27;42275;-79
2024/01/01 13:29:36;;;;;;;5.88;1.38;;;;;;;;;;5106273;27;42998;-77
2024/01/01 13:32:04;;;;;;;4.18;1.55;;;;;;;;;;5092792;28;38725;-78
2024/01/01 13:34:32;;;;;;;6.78;1.95;;;;;;;;;;5105596;27;43020;-79
2024/01/01 13:37:00;;;;;;;4.40;1.88;;;;;;;;;;5100874;27;42076;-78
2024/01/01 13:39:28;;;;;;;3.88;1.48;;;;;;;;;;5104485;27;40419;-78
2024/01/01 13:41:56;;;;;;;4.22;1.48;;;;;;;;;;5106937;27;41911;-79
2024/01/01 13:44:24;;;;;;;4.22;1.10;;;;;;;;;;5106509;27;39942;-79
2024/01/01 13:46:54;;;;;;;4.97;1.35;;;;;;;;;;5106822;27;41434;-78
2024/01/01 13:49:22;;;;;;;3.90;1.20;;;;;;;;;;5102519;27;43157;-78
2024/01/01 13:51:51;;;;;;;3.17;1.35;;;;;;;;;;5102896;27;40424;-78
2024/01/01 13:54:20;;;;;;;4.40;1.48;;;;;;;;;;5102546;27;41657;-79
2024/01/01 13:56:48;;;;;;;3.75;1.40;;;;;;;;;;5090342;27;42315;-77
2024/01/01 13:59:16;;;;;;;10.77;2.00;;;;;;;;;;5088261;27;38931;-74
2024/01/01 14:01:44;;;;;;;9.30;2.10;;;;;;;;;;5103716;27;41505;-80
2024/01/01 14:04:14;;;;;;;5.13;1.88;;;;;;;;;;5104737;27;42949;-78
2024/01/01 14:06:42;;;;;;;7.13;1.67;;;;;;;;;;5101112;27;42421;-78
2024/01/01 14:09:10;;;;;;;3.85;1.10;;;;;;;;;;5106074;27;40130;-77
2024/01/01 14:11:45;;;;;;;7.40;1.65;;;;;;;;;;5105363;27;40939;-80
2024/01/01 14:14:13;;;;;;;4.07;1.30;;;;;;;;;;5102055;27;41223;-79
2024/01/01 14:16:43;;;;;;;4.85;1.38;;;;;;;;;;5107595;27;41856;-80
2024/01/01 14:19:11;;;;;;;4.38;1.33;;;;;;;;;;5108573;27;40521;-81
2024/01/01 14:21:41;;;;;;;6.38;1.50;;;;;;;;;;5108482;27;41278;-81
2024/01/01 14:24:09;;;;;;;5.88;1.08;;;;;;;;;;5106523;27;42086;-84
2024/01/01 14:26:37;;;;;;;6.18;1.48;;;;;;;;;;5106514;27;41509;-81
2024/01/01 14:29:05;;;;;;;4.05;1.05;;;;;;;;;;5105531;27;42023;-82
2024/01/01 14:31:34;;;;;;;4.38;1.60;;;;;;;;;;5104586;27;40040;-80
2024/01/01 14:34:02;;;;;;;6.18;1.13;;;;;;;;;;5106132;27;41945;-79
2024/01/01 14:36:30;;;;;;;4.88;1.23;;;;;;;;;;5106753;27;43353;-80
2024/01/01 14:39:00;;;;;;;2.47;1.23;;;;;;;;;;5114504;27;40295;-80
2024/01/01 14:41:31;;;;;;;5.47;1.15;;;;;;;;;;5098425;27;41871;-78
2024/01/01 14:43:59;;;;;;;3.90;1.25;;;;;;;;;;5103654;27;44244;-80
2024/01/01 14:46:27;;;;;;;3.72;1.50;;;;;;;;;;5102906;27;40004;-79
2024/01/01 14:48:55;;;;;;;3.60;1.30;;;;;;;;;;5100109;28;41931;-79
2024/01/01 14:51:23;;;;;;;9.00;1.65;;;;;;;;;;5108631;27;42024;-79